Jesenwang Airport


Codes: EDMJ/
Name: Jesenwang Airport
City: Jesenwang
Country: Germany
Elevation: 1860 ft.

Photos at Jesenwang Airport


   Photos courtesy of SpottingLog. You can add your own sightings and photos by signing up for a free trial today.



No photos found.

Weather at Jesenwang Airport


Time (UTC)DescriptionTempratureWindCloud coverageVisibilityPressureHumidity
21-Jun-2024 12:00Light Rain21°C9 mph, W0%10000m1019hPa68%
21-Jun-2024 15:00Light Rain21°C4 mph, NW25%10000m1017hPa72%
21-Jun-2024 18:00Light Rain17°C16 mph, W57%10000m1016hPa86%
21-Jun-2024 21:00Light Rain13°C13 mph, SW100%10000m1017hPa91%
22-Jun-2024 00:00Light Rain12°C7 mph, SW100%10000m1017hPa91%
22-Jun-2024 03:00Light Rain12°C11 mph, SW100%10000m1017hPa91%
22-Jun-2024 06:00Overcast Clouds15°C11 mph, W87%10000m1017hPa88%
22-Jun-2024 09:00Light Rain17°C11 mph, W70%10000m1016hPa78%
22-Jun-2024 12:00Light Rain20°C11 mph, W73%10000m1014hPa67%
22-Jun-2024 15:00Light Rain16°C16 mph, NW100%10000m1014hPa92%
22-Jun-2024 18:00Moderate Rain11°C7 mph, W100%7423m1017hPa98%
22-Jun-2024 21:00Light Rain11°C4 mph, SW100%10000m1018hPa97%
23-Jun-2024 00:00Overcast Clouds11°C2 mph, SW100%10000m1017hPa96%
23-Jun-2024 03:00Overcast Clouds10°C2 mph, SE90%10000m1017hPa97%
23-Jun-2024 06:00Overcast Clouds12°C2 mph, N91%10000m1017hPa96%
23-Jun-2024 09:00Overcast Clouds14°C4 mph, E100%10000m1017hPa86%
23-Jun-2024 12:00Light Rain15°C7 mph, NE100%10000m1017hPa79%
23-Jun-2024 15:00Light Rain17°C9 mph, NE96%10000m1017hPa82%
23-Jun-2024 18:00Light Rain16°C7 mph, E84%10000m1017hPa88%
23-Jun-2024 21:00Scattered Clouds13°C7 mph, NE43%10000m1018hPa96%
24-Jun-2024 00:00Broken Clouds13°C4 mph, NE52%10000m1018hPa97%
24-Jun-2024 03:00Overcast Clouds14°C4 mph, NE100%10000m1017hPa97%
24-Jun-2024 06:00Light Rain15°C11 mph, E97%10000m1017hPa93%
24-Jun-2024 09:00Broken Clouds18°C13 mph, E73%10000m1016hPa82%
24-Jun-2024 12:00Light Rain19°C13 mph, E87%10000m1015hPa78%
24-Jun-2024 15:00Light Rain21°C11 mph, NE99%10000m1014hPa74%
24-Jun-2024 18:00Light Rain19°C9 mph, NE87%10000m1013hPa80%
24-Jun-2024 21:00Broken Clouds16°C9 mph, NE79%10000m1014hPa85%
25-Jun-2024 00:00Broken Clouds14°C7 mph, NE78%10000m1013hPa93%
25-Jun-2024 03:00Broken Clouds12°C7 mph, NE82%10000m1013hPa96%
25-Jun-2024 06:00Overcast Clouds14°C9 mph, E86%10000m1013hPa90%
25-Jun-2024 09:00Overcast Clouds18°C9 mph, NE98%10000m1011hPa78%
25-Jun-2024 12:00Overcast Clouds20°C9 mph, NE99%10000m1010hPa76%
25-Jun-2024 15:00Overcast Clouds21°C7 mph, NE97%10000m1008hPa73%
25-Jun-2024 18:00Moderate Rain19°C7 mph, NE98%7270m1007hPa87%
25-Jun-2024 21:00Moderate Rain16°C2 mph, SW98%10000m1007hPa94%
26-Jun-2024 00:00Light Rain15°C7 mph, SW94%10000m1007hPa98%
26-Jun-2024 03:00Light Rain14°C9 mph, SW95%10000m1006hPa96%
26-Jun-2024 06:00Overcast Clouds16°C9 mph, SW97%10000m1007hPa93%
26-Jun-2024 09:00Light Rain16°C11 mph, SW98%9324m1007hPa94%